sensor_id;sensor_type;location;lat;lon;timestamp;P1;durP1;ratioP1;P2;durP2;ratioP2
43150;SDS011;28755;51.478;5.702;2023-05-28T00:01:44;19.67;;;7.60;;
43150;SDS011;28755;51.478;5.702;2023-05-28T00:04:10;12.50;;;6.50;;
43150;SDS011;28755;51.478;5.702;2023-05-28T00:06:36;19.80;;;7.65;;
43150;SDS011;28755;51.478;5.702;2023-05-28T00:09:01;15.95;;;6.88;;
43150;SDS011;28755;51.478;5.702;2023-05-28T00:11:27;19.10;;;8.07;;
43150;SDS011;28755;51.478;5.702;2023-05-28T00:13:52;13.02;;;7.22;;
43150;SDS011;28755;51.478;5.702;2023-05-28T00:16:18;17.55;;;7.10;;
43150;SDS011;28755;51.478;5.702;2023-05-28T00:18:44;15.07;;;6.47;;
43150;SDS011;28755;51.478;5.702;2023-05-28T00:21:10;15.25;;;6.70;;
43150;SDS011;28755;51.478;5.702;2023-05-28T00:23:36;16.48;;;7.43;;
43150;SDS011;28755;51.478;5.702;2023-05-28T00:26:01;15.90;;;7.47;;
43150;SDS011;28755;51.478;5.702;2023-05-28T00:28:27;13.23;;;6.60;;
43150;SDS011;28755;51.478;5.702;2023-05-28T00:30:53;14.02;;;6.93;;
43150;SDS011;28755;51.478;5.702;2023-05-28T00:33:18;13.10;;;6.72;;
43150;SDS011;28755;51.478;5.702;2023-05-28T00:35:44;17.27;;;7.57;;
43150;SDS011;28755;51.478;5.702;2023-05-28T00:38:10;14.00;;;7.07;;
43150;SDS011;28755;51.478;5.702;2023-05-28T00:40:36;17.23;;;7.07;;
43150;SDS011;28755;51.478;5.702;2023-05-28T00:43:01;17.88;;;6.95;;
43150;SDS011;28755;51.478;5.702;2023-05-28T00:45:27;19.92;;;7.40;;
43150;SDS011;28755;51.478;5.702;2023-05-28T00:47:53;24.85;;;13.50;;
43150;SDS011;28755;51.478;5.702;2023-05-28T00:50:19;40.80;;;22.88;;
43150;SDS011;28755;51.478;5.702;2023-05-28T00:52:45;34.08;;;20.17;;
43150;SDS011;28755;51.478;5.702;2023-05-28T00:55:14;31.58;;;14.73;;
43150;SDS011;28755;51.478;5.702;2023-05-28T00:57:40;21.90;;;11.57;;
43150;SDS011;28755;51.478;5.702;2023-05-28T01:00:07;18.90;;;10.05;;
43150;SDS011;28755;51.478;5.702;2023-05-28T01:02:34;21.65;;;8.93;;
43150;SDS011;28755;51.478;5.702;2023-05-28T01:05:00;16.60;;;9.00;;
43150;SDS011;28755;51.478;5.702;2023-05-28T01:07:26;18.67;;;9.43;;
43150;SDS011;28755;51.478;5.702;2023-05-28T01:09:52;15.48;;;7.82;;
43150;SDS011;28755;51.478;5.702;2023-05-28T01:12:18;16.02;;;7.15;;
43150;SDS011;28755;51.478;5.702;2023-05-28T01:14:44;14.63;;;7.20;;
43150;SDS011;28755;51.478;5.702;2023-05-28T01:17:11;12.68;;;6.90;;
43150;SDS011;28755;51.478;5.702;2023-05-28T01:19:37;17.33;;;7.30;;
43150;SDS011;28755;51.478;5.702;2023-05-28T01:22:03;16.98;;;6.97;;
43150;SDS011;28755;51.478;5.702;2023-05-28T01:24:31;14.80;;;6.95;;
43150;SDS011;28755;51.478;5.702;2023-05-28T01:26:59;14.80;;;7.03;;
43150;SDS011;28755;51.478;5.702;2023-05-28T01:29:26;13.55;;;6.45;;
43150;SDS011;28755;51.478;5.702;2023-05-28T01:31:51;17.40;;;6.70;;
43150;SDS011;28755;51.478;5.702;2023-05-28T01:34:17;17.73;;;7.03;;
43150;SDS011;28755;51.478;5.702;2023-05-28T01:37:01;16.30;;;7.00;;
43150;SDS011;28755;51.478;5.702;2023-05-28T01:39:33;19.80;;;7.65;;
43150;SDS011;28755;51.478;5.702;2023-05-28T01:42:04;13.63;;;6.85;;
43150;SDS011;28755;51.478;5.702;2023-05-28T01:44:31;15.40;;;7.60;;
43150;SDS011;28755;51.478;5.702;2023-05-28T01:46:58;19.23;;;7.80;;
43150;SDS011;28755;51.478;5.702;2023-05-28T01:49:24;17.23;;;7.30;;
43150;SDS011;28755;51.478;5.702;2023-05-28T01:51:50;19.65;;;8.18;;
43150;SDS011;28755;51.478;5.702;2023-05-28T01:54:16;19.02;;;8.25;;
43150;SDS011;28755;51.478;5.702;2023-05-28T01:56:42;14.85;;;7.63;;
43150;SDS011;28755;51.478;5.702;2023-05-28T01:59:07;17.38;;;7.80;;
43150;SDS011;28755;51.478;5.702;2023-05-28T02:01:33;21.75;;;8.15;;
43150;SDS011;28755;51.478;5.702;2023-05-28T02:04:00;19.85;;;8.15;;
43150;SDS011;28755;51.478;5.702;2023-05-28T02:06:30;19.63;;;8.52;;
43150;SDS011;28755;51.478;5.702;2023-05-28T02:08:56;18.25;;;7.60;;
43150;SDS011;28755;51.478;5.702;2023-05-28T02:11:22;14.93;;;8.18;;
43150;SDS011;28755;51.478;5.702;2023-05-28T02:13:48;18.38;;;8.65;;
43150;SDS011;28755;51.478;5.702;2023-05-28T02:16:14;21.25;;;8.88;;
43150;SDS011;28755;51.478;5.702;2023-05-28T02:18:46;20.35;;;9.30;;
43150;SDS011;28755;51.478;5.702;2023-05-28T02:21:12;18.40;;;8.68;;
43150;SDS011;28755;51.478;5.702;2023-05-28T02:23:42;19.05;;;8.60;;
43150;SDS011;28755;51.478;5.702;2023-05-28T02:26:09;17.40;;;8.48;;
43150;SDS011;28755;51.478;5.702;2023-05-28T02:28:35;18.73;;;8.45;;
43150;SDS011;28755;51.478;5.702;2023-05-28T02:31:00;22.38;;;8.55;;
43150;SDS011;28755;51.478;5.702;2023-05-28T02:33:26;15.57;;;7.97;;
43150;SDS011;28755;51.478;5.702;2023-05-28T02:35:52;18.45;;;8.68;;
43150;SDS011;28755;51.478;5.702;2023-05-28T02:38:18;19.05;;;8.68;;
43150;SDS011;28755;51.478;5.702;2023-05-28T02:40:44;19.00;;;8.73;;
43150;SDS011;28755;51.478;5.702;2023-05-28T02:43:09;21.95;;;9.05;;
43150;SDS011;28755;51.478;5.702;2023-05-28T02:45:35;20.83;;;9.30;;
43150;SDS011;28755;51.478;5.702;2023-05-28T02:48:01;19.50;;;8.80;;
43150;SDS011;28755;51.478;5.702;2023-05-28T02:50:26;15.75;;;8.30;;
43150;SDS011;28755;51.478;5.702;2023-05-28T02:52:52;22.65;;;8.18;;
43150;SDS011;28755;51.478;5.702;2023-05-28T02:55:17;17.33;;;8.52;;
43150;SDS011;28755;51.478;5.702;2023-05-28T02:57:43;18.50;;;8.75;;
43150;SDS011;28755;51.478;5.702;2023-05-28T03:00:09;16.08;;;8.73;;
43150;SDS011;28755;51.478;5.702;2023-05-28T03:02:35;22.92;;;9.27;;
43150;SDS011;28755;51.478;5.702;2023-05-28T03:05:01;15.45;;;8.65;;
43150;SDS011;28755;51.478;5.702;2023-05-28T03:07:27;20.88;;;9.30;;
43150;SDS011;28755;51.478;5.702;2023-05-28T03:09:56;16.33;;;8.77;;
43150;SDS011;28755;51.478;5.702;2023-05-28T03:12:22;17.27;;;8.30;;
43150;SDS011;28755;51.478;5.702;2023-05-28T03:14:48;16.58;;;8.90;;
43150;SDS011;28755;51.478;5.702;2023-05-28T03:17:14;15.63;;;8.40;;
43150;SDS011;28755;51.478;5.702;2023-05-28T03:19:40;18.88;;;8.82;;
43150;SDS011;28755;51.478;5.702;2023-05-28T03:22:05;18.27;;;8.60;;
43150;SDS011;28755;51.478;5.702;2023-05-28T03:24:31;18.35;;;8.75;;
43150;SDS011;28755;51.478;5.702;2023-05-28T03:26:58;16.23;;;8.38;;
43150;SDS011;28755;51.478;5.702;2023-05-28T03:29:24;16.85;;;8.50;;
43150;SDS011;28755;51.478;5.702;2023-05-28T03:31:50;15.88;;;8.65;;
43150;SDS011;28755;51.478;5.702;2023-05-28T03:34:16;18.60;;;8.65;;
43150;SDS011;28755;51.478;5.702;2023-05-28T03:36:42;19.38;;;8.73;;
43150;SDS011;28755;51.478;5.702;2023-05-28T03:39:08;18.65;;;8.68;;
43150;SDS011;28755;51.478;5.702;2023-05-28T03:41:34;17.27;;;8.40;;
43150;SDS011;28755;51.478;5.702;2023-05-28T03:44:00;18.30;;;9.02;;
43150;SDS011;28755;51.478;5.702;2023-05-28T03:46:26;17.67;;;8.80;;
43150;SDS011;28755;51.478;5.702;2023-05-28T03:48:52;18.35;;;8.82;;
43150;SDS011;28755;51.478;5.702;2023-05-28T03:51:17;18.05;;;9.13;;
43150;SDS011;28755;51.478;5.702;2023-05-28T03:53:43;19.63;;;9.30;;
43150;SDS011;28755;51.478;5.702;2023-05-28T03:56:08;16.67;;;7.78;;
43150;SDS011;28755;51.478;5.702;2023-05-28T03:58:34;21.33;;;9.48;;
43150;SDS011;28755;51.478;5.702;2023-05-28T04:01:00;23.83;;;9.10;;
43150;SDS011;28755;51.478;5.702;2023-05-28T04:03:25;18.27;;;9.38;;
43150;SDS011;28755;51.478;5.702;2023-05-28T04:05:51;20.77;;;9.43;;
43150;SDS011;28755;51.478;5.702;2023-05-28T04:08:17;22.08;;;9.63;;
43150;SDS011;28755;51.478;5.702;2023-05-28T04:10:43;21.60;;;9.32;;
43150;SDS011;28755;51.478;5.702;2023-05-28T04:13:08;20.85;;;9.15;;
43150;SDS011;28755;51.478;5.702;2023-05-28T04:15:34;20.25;;;9.23;;
43150;SDS011;28755;51.478;5.702;2023-05-28T04:17:59;23.33;;;10.00;;
43150;SDS011;28755;51.478;5.702;2023-05-28T04:20:25;20.95;;;9.43;;
43150;SDS011;28755;51.478;5.702;2023-05-28T04:22:51;18.08;;;9.45;;
43150;SDS011;28755;51.478;5.702;2023-05-28T04:25:17;18.67;;;9.80;;
43150;SDS011;28755;51.478;5.702;2023-05-28T04:27:45;22.55;;;9.95;;
43150;SDS011;28755;51.478;5.702;2023-05-28T04:30:11;20.63;;;9.18;;
43150;SDS011;28755;51.478;5.702;2023-05-28T04:32:37;22.10;;;10.10;;
43150;SDS011;28755;51.478;5.702;2023-05-28T04:35:06;19.33;;;9.73;;
43150;SDS011;28755;51.478;5.702;2023-05-28T04:37:36;24.88;;;9.25;;
43150;SDS011;28755;51.478;5.702;2023-05-28T04:40:05;21.85;;;9.57;;
43150;SDS011;28755;51.478;5.702;2023-05-28T04:42:32;20.73;;;9.57;;
43150;SDS011;28755;51.478;5.702;2023-05-28T04:44:57;17.38;;;9.10;;
43150;SDS011;28755;51.478;5.702;2023-05-28T04:47:23;22.48;;;9.73;;
43150;SDS011;28755;51.478;5.702;2023-05-28T04:49:49;19.40;;;9.30;;
43150;SDS011;28755;51.478;5.702;2023-05-28T04:52:14;15.13;;;8.95;;
43150;SDS011;28755;51.478;5.702;2023-05-28T04:54:41;17.83;;;8.85;;
43150;SDS011;28755;51.478;5.702;2023-05-28T04:57:09;24.35;;;10.02;;
43150;SDS011;28755;51.478;5.702;2023-05-28T04:59:34;16.98;;;8.93;;
43150;SDS011;28755;51.478;5.702;2023-05-28T05:02:00;20.10;;;10.07;;
43150;SDS011;28755;51.478;5.702;2023-05-28T05:04:25;21.25;;;9.95;;
43150;SDS011;28755;51.478;5.702;2023-05-28T05:06:51;21.83;;;9.90;;
43150;SDS011;28755;51.478;5.702;2023-05-28T05:09:17;22.35;;;9.80;;
43150;SDS011;28755;51.478;5.702;2023-05-28T05:11:44;16.85;;;9.27;;
43150;SDS011;28755;51.478;5.702;2023-05-28T05:14:10;19.70;;;9.70;;
43150;SDS011;28755;51.478;5.702;2023-05-28T05:16:35;21.20;;;10.07;;
43150;SDS011;28755;51.478;5.702;2023-05-28T05:19:01;19.42;;;10.52;;
43150;SDS011;28755;51.478;5.702;2023-05-28T05:21:27;19.58;;;9.98;;
43150;SDS011;28755;51.478;5.702;2023-05-28T05:23:53;23.10;;;10.23;;
43150;SDS011;28755;51.478;5.702;2023-05-28T05:26:18;15.93;;;9.07;;
43150;SDS011;28755;51.478;5.702;2023-05-28T05:28:44;17.52;;;9.32;;
43150;SDS011;28755;51.478;5.702;2023-05-28T05:31:10;25.58;;;9.30;;
43150;SDS011;28755;51.478;5.702;2023-05-28T05:33:39;22.02;;;9.60;;
43150;SDS011;28755;51.478;5.702;2023-05-28T05:36:06;25.05;;;9.05;;
43150;SDS011;28755;51.478;5.702;2023-05-28T05:38:33;20.70;;;9.00;;
43150;SDS011;28755;51.478;5.702;2023-05-28T05:40:58;23.17;;;9.35;;
43150;SDS011;28755;51.478;5.702;2023-05-28T05:43:25;17.90;;;8.82;;
43150;SDS011;28755;51.478;5.702;2023-05-28T05:45:50;24.20;;;9.25;;
43150;SDS011;28755;51.478;5.702;2023-05-28T05:48:16;15.38;;;8.88;;
43150;SDS011;28755;51.478;5.702;2023-05-28T05:50:48;18.23;;;8.50;;
43150;SDS011;28755;51.478;5.702;2023-05-28T05:53:14;19.38;;;9.18;;
43150;SDS011;28755;51.478;5.702;2023-05-28T05:55:40;21.10;;;9.23;;
43150;SDS011;28755;51.478;5.702;2023-05-28T05:58:06;21.38;;;8.68;;
43150;SDS011;28755;51.478;5.702;2023-05-28T06:00:32;20.98;;;8.45;;
43150;SDS011;28755;51.478;5.702;2023-05-28T06:02:58;18.83;;;8.20;;
43150;SDS011;28755;51.478;5.702;2023-05-28T06:05:23;15.80;;;8.27;;
43150;SDS011;28755;51.478;5.702;2023-05-28T06:07:49;20.90;;;9.68;;
43150;SDS011;28755;51.478;5.702;2023-05-28T06:10:14;14.93;;;7.82;;
43150;SDS011;28755;51.478;5.702;2023-05-28T06:12:40;18.98;;;8.57;;
43150;SDS011;28755;51.478;5.702;2023-05-28T06:15:06;17.98;;;8.27;;
43150;SDS011;28755;51.478;5.702;2023-05-28T06:17:31;19.88;;;8.18;;
43150;SDS011;28755;51.478;5.702;2023-05-28T06:19:58;16.63;;;7.97;;
43150;SDS011;28755;51.478;5.702;2023-05-28T06:22:25;20.33;;;8.52;;
43150;SDS011;28755;51.478;5.702;2023-05-28T06:24:51;18.50;;;8.00;;
43150;SDS011;28755;51.478;5.702;2023-05-28T06:27:17;18.17;;;7.93;;
43150;SDS011;28755;51.478;5.702;2023-05-28T06:29:43;21.90;;;7.95;;
43150;SDS011;28755;51.478;5.702;2023-05-28T06:32:09;16.95;;;7.65;;
43150;SDS011;28755;51.478;5.702;2023-05-28T06:34:35;20.17;;;8.13;;
43150;SDS011;28755;51.478;5.702;2023-05-28T06:37:01;17.67;;;7.28;;
43150;SDS011;28755;51.478;5.702;2023-05-28T06:39:27;17.67;;;7.78;;
43150;SDS011;28755;51.478;5.702;2023-05-28T06:41:53;18.67;;;7.05;;
43150;SDS011;28755;51.478;5.702;2023-05-28T06:44:18;15.25;;;7.38;;
43150;SDS011;28755;51.478;5.702;2023-05-28T06:46:44;21.10;;;7.88;;
43150;SDS011;28755;51.478;5.702;2023-05-28T06:49:10;14.77;;;6.68;;
43150;SDS011;28755;51.478;5.702;2023-05-28T06:51:35;16.42;;;7.00;;
43150;SDS011;28755;51.478;5.702;2023-05-28T06:54:01;15.45;;;6.45;;
43150;SDS011;28755;51.478;5.702;2023-05-28T06:56:27;16.58;;;6.65;;
43150;SDS011;28755;51.478;5.702;2023-05-28T06:58:53;16.52;;;6.55;;
43150;SDS011;28755;51.478;5.702;2023-05-28T07:01:19;16.75;;;6.55;;
43150;SDS011;28755;51.478;5.702;2023-05-28T07:03:45;19.15;;;6.80;;
43150;SDS011;28755;51.478;5.702;2023-05-28T07:06:11;11.32;;;6.10;;
43150;SDS011;28755;51.478;5.702;2023-05-28T07:08:37;18.10;;;5.90;;
43150;SDS011;28755;51.478;5.702;2023-05-28T07:11:09;15.68;;;6.30;;
43150;SDS011;28755;51.478;5.702;2023-05-28T07:13:35;14.52;;;6.50;;
43150;SDS011;28755;51.478;5.702;2023-05-28T07:16:01;14.95;;;6.05;;
43150;SDS011;28755;51.478;5.702;2023-05-28T07:18:27;12.60;;;5.85;;
43150;SDS011;28755;51.478;5.702;2023-05-28T07:20:52;15.10;;;5.85;;
43150;SDS011;28755;51.478;5.702;2023-05-28T07:23:18;15.45;;;6.30;;
43150;SDS011;28755;51.478;5.702;2023-05-28T07:25:44;15.52;;;5.72;;
43150;SDS011;28755;51.478;5.702;2023-05-28T07:28:09;13.45;;;5.30;;
43150;SDS011;28755;51.478;5.702;2023-05-28T07:30:35;14.48;;;5.22;;
43150;SDS011;28755;51.478;5.702;2023-05-28T07:33:01;15.18;;;5.38;;
43150;SDS011;28755;51.478;5.702;2023-05-28T07:35:26;12.63;;;5.80;;
43150;SDS011;28755;51.478;5.702;2023-05-28T07:37:52;14.48;;;5.72;;
43150;SDS011;28755;51.478;5.702;2023-05-28T07:40:18;11.73;;;5.15;;
43150;SDS011;28755;51.478;5.702;2023-05-28T07:42:44;14.73;;;5.30;;
43150;SDS011;28755;51.478;5.702;2023-05-28T07:45:09;13.13;;;6.07;;
43150;SDS011;28755;51.478;5.702;2023-05-28T07:47:35;12.10;;;5.30;;
43150;SDS011;28755;51.478;5.702;2023-05-28T07:50:01;14.57;;;5.70;;
43150;SDS011;28755;51.478;5.702;2023-05-28T07:52:28;14.88;;;5.55;;
43150;SDS011;28755;51.478;5.702;2023-05-28T07:54:54;15.82;;;5.53;;
43150;SDS011;28755;51.478;5.702;2023-05-28T07:57:23;12.40;;;5.20;;
43150;SDS011;28755;51.478;5.702;2023-05-28T07:59:49;12.60;;;5.20;;
43150;SDS011;28755;51.478;5.702;2023-05-28T08:02:15;12.52;;;5.55;;
43150;SDS011;28755;51.478;5.702;2023-05-28T08:04:40;14.68;;;4.65;;
43150;SDS011;28755;51.478;5.702;2023-05-28T08:07:06;16.42;;;5.68;;
43150;SDS011;28755;51.478;5.702;2023-05-28T08:09:32;18.38;;;5.93;;
43150;SDS011;28755;51.478;5.702;2023-05-28T08:12:01;12.45;;;5.03;;
43150;SDS011;28755;51.478;5.702;2023-05-28T08:14:27;14.13;;;6.07;;
43150;SDS011;28755;51.478;5.702;2023-05-28T08:16:53;15.80;;;5.15;;
43150;SDS011;28755;51.478;5.702;2023-05-28T08:19:19;14.25;;;4.95;;
43150;SDS011;28755;51.478;5.702;2023-05-28T08:21:44;14.13;;;5.03;;
43150;SDS011;28755;51.478;5.702;2023-05-28T08:24:10;20.30;;;5.60;;
43150;SDS011;28755;51.478;5.702;2023-05-28T08:26:36;14.35;;;5.38;;
43150;SDS011;28755;51.478;5.702;2023-05-28T08:29:02;11.15;;;4.93;;
43150;SDS011;28755;51.478;5.702;2023-05-28T08:31:29;16.33;;;5.15;;
43150;SDS011;28755;51.478;5.702;2023-05-28T08:33:55;11.23;;;4.20;;
43150;SDS011;28755;51.478;5.702;2023-05-28T08:36:21;12.88;;;5.47;;
43150;SDS011;28755;51.478;5.702;2023-05-28T08:38:47;13.77;;;5.22;;
43150;SDS011;28755;51.478;5.702;2023-05-28T08:41:12;12.65;;;4.95;;
43150;SDS011;28755;51.478;5.702;2023-05-28T08:43:38;13.40;;;4.97;;
43150;SDS011;28755;51.478;5.702;2023-05-28T08:46:03;13.52;;;4.60;;
43150;SDS011;28755;51.478;5.702;2023-05-28T08:48:31;13.35;;;5.57;;
43150;SDS011;28755;51.478;5.702;2023-05-28T08:51:00;12.02;;;4.80;;
43150;SDS011;28755;51.478;5.702;2023-05-28T08:53:27;18.25;;;5.63;;
43150;SDS011;28755;51.478;5.702;2023-05-28T08:55:58;16.45;;;5.60;;
43150;SDS011;28755;51.478;5.702;2023-05-28T08:58:23;10.82;;;4.75;;
43150;SDS011;28755;51.478;5.702;2023-05-28T09:00:50;12.52;;;5.20;;
43150;SDS011;28755;51.478;5.702;2023-05-28T09:03:16;14.38;;;4.80;;
43150;SDS011;28755;51.478;5.702;2023-05-28T09:05:41;13.63;;;4.88;;
43150;SDS011;28755;51.478;5.702;2023-05-28T09:08:08;14.80;;;4.60;;
43150;SDS011;28755;51.478;5.702;2023-05-28T09:10:35;12.02;;;4.18;;
43150;SDS011;28755;51.478;5.702;2023-05-28T09:13:04;11.63;;;4.38;;
43150;SDS011;28755;51.478;5.702;2023-05-28T09:15:31;18.70;;;5.38;;
43150;SDS011;28755;51.478;5.702;2023-05-28T09:18:00;12.15;;;5.10;;
43150;SDS011;28755;51.478;5.702;2023-05-28T09:20:26;11.48;;;4.60;;
43150;SDS011;28755;51.478;5.702;2023-05-28T09:23:02;13.63;;;4.22;;
43150;SDS011;28755;51.478;5.702;2023-05-28T09:25:30;8.60;;;4.30;;
43150;SDS011;28755;51.478;5.702;2023-05-28T09:28:01;14.35;;;4.43;;
43150;SDS011;28755;51.478;5.702;2023-05-28T09:30:27;14.70;;;5.35;;
43150;SDS011;28755;51.478;5.702;2023-05-28T09:33:00;11.10;;;4.50;;
43150;SDS011;28755;51.478;5.702;2023-05-28T09:35:28;15.38;;;5.05;;
43150;SDS011;28755;51.478;5.702;2023-05-28T09:37:58;12.15;;;4.25;;
43150;SDS011;28755;51.478;5.702;2023-05-28T09:40:27;11.05;;;4.80;;
43150;SDS011;28755;51.478;5.702;2023-05-28T09:42:52;13.68;;;4.80;;
43150;SDS011;28755;51.478;5.702;2023-05-28T09:45:24;12.43;;;4.68;;
43150;SDS011;28755;51.478;5.702;2023-05-28T09:47:51;15.60;;;4.57;;
43150;SDS011;28755;51.478;5.702;2023-05-28T09:50:16;13.85;;;5.07;;
43150;SDS011;28755;51.478;5.702;2023-05-28T09:52:43;12.43;;;5.28;;
43150;SDS011;28755;51.478;5.702;2023-05-28T09:55:12;13.43;;;5.15;;
43150;SDS011;28755;51.478;5.702;2023-05-28T09:58:06;13.02;;;4.63;;
43150;SDS011;28755;51.478;5.702;2023-05-28T10:05:31;14.30;;;5.28;;
43150;SDS011;28755;51.478;5.702;2023-05-28T10:07:58;10.65;;;4.78;;
43150;SDS011;28755;51.478;5.702;2023-05-28T10:10:25;14.35;;;4.97;;
43150;SDS011;28755;51.478;5.702;2023-05-28T10:12:53;11.95;;;4.80;;
43150;SDS011;28755;51.478;5.702;2023-05-28T10:15:20;12.50;;;4.78;;
43150;SDS011;28755;51.478;5.702;2023-05-28T10:17:46;13.98;;;4.22;;
43150;SDS011;28755;51.478;5.702;2023-05-28T10:20:12;13.77;;;4.28;;
43150;SDS011;28755;51.478;5.702;2023-05-28T10:22:39;11.82;;;4.25;;
43150;SDS011;28755;51.478;5.702;2023-05-28T10:25:05;11.07;;;3.72;;
43150;SDS011;28755;51.478;5.702;2023-05-28T10:27:33;13.45;;;4.28;;
43150;SDS011;28755;51.478;5.702;2023-05-28T10:30:04;10.93;;;3.42;;
43150;SDS011;28755;51.478;5.702;2023-05-28T10:35:03;7.45;;;3.80;;
43150;SDS011;28755;51.478;5.702;2023-05-28T10:37:29;8.70;;;4.15;;
43150;SDS011;28755;51.478;5.702;2023-05-28T10:39:55;17.90;;;3.97;;
43150;SDS011;28755;51.478;5.702;2023-05-28T10:42:20;22.05;;;4.35;;
43150;SDS011;28755;51.478;5.702;2023-05-28T10:44:50;8.23;;;3.58;;
43150;SDS011;28755;51.478;5.702;2023-05-28T10:47:18;11.93;;;3.92;;
43150;SDS011;28755;51.478;5.702;2023-05-28T10:52:35;8.63;;;3.90;;
43150;SDS011;28755;51.478;5.702;2023-05-28T10:55:02;11.05;;;3.97;;
43150;SDS011;28755;51.478;5.702;2023-05-28T10:57:39;9.60;;;3.53;;
43150;SDS011;28755;51.478;5.702;2023-05-28T11:00:08;10.80;;;4.20;;
43150;SDS011;28755;51.478;5.702;2023-05-28T11:02:38;12.05;;;3.80;;
43150;SDS011;28755;51.478;5.702;2023-05-28T11:05:06;9.63;;;3.60;;
43150;SDS011;28755;51.478;5.702;2023-05-28T11:07:32;11.82;;;3.70;;
43150;SDS011;28755;51.478;5.702;2023-05-28T11:10:00;8.98;;;3.72;;
43150;SDS011;28755;51.478;5.702;2023-05-28T11:12:27;25.17;;;4.53;;
43150;SDS011;28755;51.478;5.702;2023-05-28T11:14:53;7.00;;;3.50;;
43150;SDS011;28755;51.478;5.702;2023-05-28T11:17:19;9.85;;;3.70;;
43150;SDS011;28755;51.478;5.702;2023-05-28T11:19:46;12.32;;;3.80;;
43150;SDS011;28755;51.478;5.702;2023-05-28T11:22:13;13.63;;;3.80;;
43150;SDS011;28755;51.478;5.702;2023-05-28T11:29:56;7.95;;;3.70;;
43150;SDS011;28755;51.478;5.702;2023-05-28T11:32:23;9.00;;;3.83;;
43150;SDS011;28755;51.478;5.702;2023-05-28T11:34:50;16.17;;;4.20;;
43150;SDS011;28755;51.478;5.702;2023-05-28T11:37:22;7.95;;;3.50;;
43150;SDS011;28755;51.478;5.702;2023-05-28T11:39:50;11.25;;;3.80;;
43150;SDS011;28755;51.478;5.702;2023-05-28T11:42:17;7.60;;;3.47;;
43150;SDS011;28755;51.478;5.702;2023-05-28T11:44:44;12.05;;;3.97;;
43150;SDS011;28755;51.478;5.702;2023-05-28T11:47:13;7.78;;;3.38;;
43150;SDS011;28755;51.478;5.702;2023-05-28T11:49:40;8.73;;;3.67;;
43150;SDS011;28755;51.478;5.702;2023-05-28T11:52:25;9.55;;;3.83;;
43150;SDS011;28755;51.478;5.702;2023-05-28T11:54:55;13.15;;;4.10;;
43150;SDS011;28755;51.478;5.702;2023-05-28T11:57:22;7.18;;;3.45;;
43150;SDS011;28755;51.478;5.702;2023-05-28T12:02:46;11.27;;;3.58;;
43150;SDS011;28755;51.478;5.702;2023-05-28T12:05:12;10.05;;;3.80;;
43150;SDS011;28755;51.478;5.702;2023-05-28T12:07:43;10.63;;;3.60;;
43150;SDS011;28755;51.478;5.702;2023-05-28T12:10:13;9.73;;;3.85;;
43150;SDS011;28755;51.478;5.702;2023-05-28T12:15:08;13.25;;;4.50;;
43150;SDS011;28755;51.478;5.702;2023-05-28T12:17:35;10.30;;;3.90;;
43150;SDS011;28755;51.478;5.702;2023-05-28T12:20:04;11.60;;;3.70;;
43150;SDS011;28755;51.478;5.702;2023-05-28T12:23:03;10.95;;;4.20;;
43150;SDS011;28755;51.478;5.702;2023-05-28T12:28:08;9.82;;;4.15;;
43150;SDS011;28755;51.478;5.702;2023-05-28T12:30:33;10.38;;;3.83;;
43150;SDS011;28755;51.478;5.702;2023-05-28T12:32:59;15.23;;;5.50;;
43150;SDS011;28755;51.478;5.702;2023-05-28T12:35:24;9.00;;;4.15;;
43150;SDS011;28755;51.478;5.702;2023-05-28T12:37:50;6.72;;;3.00;;
43150;SDS011;28755;51.478;5.702;2023-05-28T12:40:16;9.50;;;3.65;;
43150;SDS011;28755;51.478;5.702;2023-05-28T12:42:41;14.55;;;4.18;;
43150;SDS011;28755;51.478;5.702;2023-05-28T12:45:07;9.98;;;3.88;;
43150;SDS011;28755;51.478;5.702;2023-05-28T12:47:33;10.48;;;3.95;;
43150;SDS011;28755;51.478;5.702;2023-05-28T12:49:58;9.30;;;4.07;;
43150;SDS011;28755;51.478;5.702;2023-05-28T12:52:24;12.85;;;4.38;;
43150;SDS011;28755;51.478;5.702;2023-05-28T12:54:49;13.25;;;4.30;;
43150;SDS011;28755;51.478;5.702;2023-05-28T12:57:15;12.10;;;3.85;;
43150;SDS011;28755;51.478;5.702;2023-05-28T12:59:40;9.55;;;3.75;;
43150;SDS011;28755;51.478;5.702;2023-05-28T13:02:06;9.32;;;3.70;;
43150;SDS011;28755;51.478;5.702;2023-05-28T13:04:32;11.57;;;3.45;;
43150;SDS011;28755;51.478;5.702;2023-05-28T13:06:57;9.73;;;3.40;;
43150;SDS011;28755;51.478;5.702;2023-05-28T13:09:23;11.65;;;4.20;;
43150;SDS011;28755;51.478;5.702;2023-05-28T13:11:49;8.20;;;3.75;;
43150;SDS011;28755;51.478;5.702;2023-05-28T13:14:14;9.88;;;3.97;;
43150;SDS011;28755;51.478;5.702;2023-05-28T13:16:40;15.80;;;4.35;;
43150;SDS011;28755;51.478;5.702;2023-05-28T13:19:05;10.55;;;3.75;;
43150;SDS011;28755;51.478;5.702;2023-05-28T13:21:31;8.27;;;3.80;;
43150;SDS011;28755;51.478;5.702;2023-05-28T13:24:03;11.70;;;4.10;;
43150;SDS011;28755;51.478;5.702;2023-05-28T13:26:30;10.68;;;4.15;;
43150;SDS011;28755;51.478;5.702;2023-05-28T13:29:00;9.60;;;4.10;;
43150;SDS011;28755;51.478;5.702;2023-05-28T13:31:27;10.68;;;3.97;;
43150;SDS011;28755;51.478;5.702;2023-05-28T13:33:53;11.90;;;3.90;;
43150;SDS011;28755;51.478;5.702;2023-05-28T13:36:19;10.70;;;3.95;;
43150;SDS011;28755;51.478;5.702;2023-05-28T13:38:44;12.73;;;4.07;;
43150;SDS011;28755;51.478;5.702;2023-05-28T13:41:12;20.23;;;4.43;;
43150;SDS011;28755;51.478;5.702;2023-05-28T13:43:39;9.50;;;3.85;;
43150;SDS011;28755;51.478;5.702;2023-05-28T13:46:05;9.57;;;4.10;;
43150;SDS011;28755;51.478;5.702;2023-05-28T13:48:30;10.05;;;3.20;;
43150;SDS011;28755;51.478;5.702;2023-05-28T13:50:56;11.63;;;3.95;;
43150;SDS011;28755;51.478;5.702;2023-05-28T13:53:22;10.93;;;3.45;;
43150;SDS011;28755;51.478;5.702;2023-05-28T13:55:48;11.40;;;3.70;;
43150;SDS011;28755;51.478;5.702;2023-05-28T13:58:14;10.23;;;3.40;;
43150;SDS011;28755;51.478;5.702;2023-05-28T14:00:40;9.93;;;3.80;;
43150;SDS011;28755;51.478;5.702;2023-05-28T14:03:06;11.55;;;4.13;;
43150;SDS011;28755;51.478;5.702;2023-05-28T14:05:31;9.77;;;3.97;;
43150;SDS011;28755;51.478;5.702;2023-05-28T14:07:59;12.30;;;4.57;;
43150;SDS011;28755;51.478;5.702;2023-05-28T14:10:24;12.43;;;4.95;;
43150;SDS011;28755;51.478;5.702;2023-05-28T14:12:50;12.93;;;4.75;;
43150;SDS011;28755;51.478;5.702;2023-05-28T14:15:16;10.75;;;3.90;;
43150;SDS011;28755;51.478;5.702;2023-05-28T14:17:42;23.40;;;4.57;;
43150;SDS011;28755;51.478;5.702;2023-05-28T14:20:08;9.85;;;4.03;;
43150;SDS011;28755;51.478;5.702;2023-05-28T14:22:34;10.45;;;4.60;;
43150;SDS011;28755;51.478;5.702;2023-05-28T14:24:59;16.25;;;4.28;;
43150;SDS011;28755;51.478;5.702;2023-05-28T14:27:25;13.98;;;3.88;;
43150;SDS011;28755;51.478;5.702;2023-05-28T14:29:50;10.45;;;4.38;;
43150;SDS011;28755;51.478;5.702;2023-05-28T14:32:16;11.18;;;4.60;;
43150;SDS011;28755;51.478;5.702;2023-05-28T14:34:41;9.90;;;3.85;;
43150;SDS011;28755;51.478;5.702;2023-05-28T14:37:07;15.90;;;4.35;;
43150;SDS011;28755;51.478;5.702;2023-05-28T14:39:32;14.23;;;4.68;;
43150;SDS011;28755;51.478;5.702;2023-05-28T14:41:58;9.02;;;4.05;;
43150;SDS011;28755;51.478;5.702;2023-05-28T14:44:23;12.32;;;3.63;;
43150;SDS011;28755;51.478;5.702;2023-05-28T14:46:49;12.88;;;3.92;;
43150;SDS011;28755;51.478;5.702;2023-05-28T14:49:15;11.15;;;4.18;;
43150;SDS011;28755;51.478;5.702;2023-05-28T14:51:40;13.73;;;5.20;;
43150;SDS011;28755;51.478;5.702;2023-05-28T14:54:06;14.10;;;5.40;;
43150;SDS011;28755;51.478;5.702;2023-05-28T14:56:31;17.30;;;4.93;;